Aeroporto :
LOGIN :

Iscrizione | Disclaimer

   EN    FR    IT 

 










Sommario :    VFR   VFR Marginale   IFR   IFR Intensivo   IFR Molto Intensivo
Visibilità : 
Base nubi : 
>= 8 km
>= 3000ft
5 / 8 km
1000 / 3000 ft
1500m / 5 km
500 / 1000 ft
800 / 1500m
200 / 500 ft
< 800m
< 200 ft
Simboli :   Temporali  Nebbia  Neve Forte  Precipitazioni Forti  Vento > 20 kt
SIGMETs :   Varie  Temporali  Ghiacco  Turbolenza  Onda orograficha  Ceneri Vulcaniche






- Altitudine del aeroporto : 19 ft
- Codice IATA : LCY


EGLC - London City

ULTIMO METAR :
  • 160820Z AUTO 22008KT 9999 NCD 09/04 Q1001

METARs OBSOLETI :
  • 160750Z AUTO 21007KT 180V260 9999 NCD 09/04 Q1000
  • 160720Z AUTO 21008KT 9999 //////TCU 09/04 Q1000
  • 160650Z AUTO 20007KT 160V240 9999 //////CB 09/07 Q1000
  • 160620Z AUTO 20007KT 170V240 9999 SCT027 SCT043 09/07 Q0999
  • 160550Z AUTO 20007KT 170V240 9999 NCD 09/07 Q0999

TAF TAF EGLC
Valido dal 16 a 09 ore il 16 a 18 ore UTC


160752Z 1609/1618 19010KT 9999 SCT035
PROB40
TEMPO 1609/1618 6000 RA
BECMG 1615/1618 09005KT
ATIS : +44 20 7646 0224



MetMap, La meteo Aeronautica in un colpo d'occhio ! - Copyright ORBIFLY Dicembre 2007 - Disclaimer

ORBIFLY MET'MAP TEAM :

Programmazione e sviluppo : Alexandra Zaïnal
Concezione : Baudouin d'Aumeries
Aiuto per la programmazione : Marc-Olivier Méhu
Supporto tecnico e logistico : Manuel Goepfert
Aiuto per la traduzione : Arnaldo La Scala

Contatto : metmap@orbifly.com




FONTI E CREDITI :

   NOAA